sensor_id;sensor_type;location;lat;lon;timestamp;pressure;altitude;pressure_sealevel;temperature;humidity
51299;BME280;37382;45.192;9.790;2023-03-04T05:05:50;101437.91;;;4.53;100.00
51299;BME280;37382;45.192;9.790;2023-03-04T05:08:17;101435.34;;;4.61;100.00
51299;BME280;37382;45.192;9.790;2023-03-04T05:10:45;101439.03;;;4.79;100.00
51299;BME280;37382;45.192;9.790;2023-03-04T05:13:13;101435.19;;;4.43;100.00
51299;BME280;37382;45.192;9.790;2023-03-04T05:15:41;101432.75;;;4.10;100.00
51299;BME280;37382;45.192;9.790;2023-03-04T05:18:08;101435.69;;;3.98;100.00
51299;BME280;37382;45.192;9.790;2023-03-04T05:20:36;101433.84;;;3.98;100.00
51299;BME280;37382;45.192;9.790;2023-03-04T05:23:03;101429.28;;;3.89;100.00
51299;BME280;37382;45.192;9.790;2023-03-04T05:25:32;101441.44;;;3.83;100.00
51299;BME280;37382;45.192;9.790;2023-03-04T05:27:59;101425.28;;;3.83;100.00
51299;BME280;37382;45.192;9.790;2023-03-04T05:30:28;101435.63;;;4.28;100.00
51299;BME280;37382;45.192;9.790;2023-03-04T05:32:55;101439.00;;;4.31;100.00
51299;BME280;37382;45.192;9.790;2023-03-04T05:35:23;101432.78;;;4.30;100.00
51299;BME280;37382;45.192;9.790;2023-03-04T05:37:52;101436.78;;;4.55;100.00
51299;BME280;37382;45.192;9.790;2023-03-04T05:40:20;101439.59;;;4.73;100.00
51299;BME280;37382;45.192;9.790;2023-03-04T05:42:48;101440.19;;;4.57;100.00
51299;BME280;37382;45.192;9.790;2023-03-04T05:45:16;101436.94;;;4.54;100.00
51299;BME280;37382;45.192;9.790;2023-03-04T05:47:44;101431.38;;;4.45;100.00
51299;BME280;37382;45.192;9.790;2023-03-04T05:50:11;101441.69;;;4.21;100.00
51299;BME280;37382;45.192;9.790;2023-03-04T05:52:39;101446.63;;;4.06;100.00
51299;BME280;37382;45.192;9.790;2023-03-04T05:55:07;101450.25;;;4.55;100.00
51299;BME280;37382;45.192;9.790;2023-03-04T05:57:35;101447.25;;;4.78;100.00
51299;BME280;37382;45.192;9.790;2023-03-04T06:00:03;101445.88;;;4.74;100.00
51299;BME280;37382;45.192;9.790;2023-03-04T06:02:41;101456.88;;;4.32;100.00
51299;BME280;37382;45.192;9.790;2023-03-04T06:05:11;101456.31;;;4.38;100.00
51299;BME280;37382;45.192;9.790;2023-03-04T06:07:41;101443.44;;;4.51;100.00
51299;BME280;37382;45.192;9.790;2023-03-04T06:10:13;101451.25;;;4.54;100.00
51299;BME280;37382;45.192;9.790;2023-03-04T06:12:41;101454.38;;;4.79;100.00
51299;BME280;37382;45.192;9.790;2023-03-04T06:15:09;101451.66;;;4.50;100.00
51299;BME280;37382;45.192;9.790;2023-03-04T06:17:39;101461.00;;;4.36;100.00
51299;BME280;37382;45.192;9.790;2023-03-04T06:20:10;101463.72;;;4.55;100.00
51299;BME280;37382;45.192;9.790;2023-03-04T06:22:38;101466.81;;;4.51;100.00
51299;BME280;37382;45.192;9.790;2023-03-04T06:25:06;101471.41;;;4.09;100.00
51299;BME280;37382;45.192;9.790;2023-03-04T06:27:34;101471.09;;;4.53;100.00
51299;BME280;37382;45.192;9.790;2023-03-04T06:30:02;101472.66;;;4.85;100.00
51299;BME280;37382;45.192;9.790;2023-03-04T06:32:30;101464.28;;;4.88;100.00
51299;BME280;37382;45.192;9.790;2023-03-04T06:34:57;101466.69;;;4.72;100.00
51299;BME280;37382;45.192;9.790;2023-03-04T06:37:25;101468.56;;;4.61;100.00
51299;BME280;37382;45.192;9.790;2023-03-04T06:39:52;101473.59;;;4.25;100.00
51299;BME280;37382;45.192;9.790;2023-03-04T06:42:20;101477.88;;;4.38;100.00
51299;BME280;37382;45.192;9.790;2023-03-04T06:44:48;101482.88;;;4.52;100.00
51299;BME280;37382;45.192;9.790;2023-03-04T06:47:15;101477.91;;;4.87;100.00
51299;BME280;37382;45.192;9.790;2023-03-04T06:49:44;101489.25;;;5.10;100.00
51299;BME280;37382;45.192;9.790;2023-03-04T06:52:12;101484.16;;;5.16;100.00
51299;BME280;37382;45.192;9.790;2023-03-04T06:54:39;101487.25;;;5.02;100.00
51299;BME280;37382;45.192;9.790;2023-03-04T06:57:07;101492.66;;;5.02;100.00
51299;BME280;37382;45.192;9.790;2023-03-04T06:59:34;101498.75;;;4.65;100.00
51299;BME280;37382;45.192;9.790;2023-03-04T07:02:02;101499.44;;;4.48;100.00
51299;BME280;37382;45.192;9.790;2023-03-04T07:04:29;101497.56;;;4.38;100.00
51299;BME280;37382;45.192;9.790;2023-03-04T07:06:58;101495.41;;;4.22;100.00
51299;BME280;37382;45.192;9.790;2023-03-04T07:09:25;101508.19;;;4.20;100.00
51299;BME280;37382;45.192;9.790;2023-03-04T07:11:53;101501.38;;;4.26;100.00
51299;BME280;37382;45.192;9.790;2023-03-04T07:14:20;101505.38;;;4.32;100.00
51299;BME280;37382;45.192;9.790;2023-03-04T07:16:50;101505.25;;;4.43;100.00
51299;BME280;37382;45.192;9.790;2023-03-04T07:19:17;101500.31;;;4.58;100.00
51299;BME280;37382;45.192;9.790;2023-03-04T07:21:44;101509.53;;;4.75;100.00
51299;BME280;37382;45.192;9.790;2023-03-04T07:24:13;101511.66;;;5.20;100.00
51299;BME280;37382;45.192;9.790;2023-03-04T07:26:40;101510.78;;;5.49;100.00
51299;BME280;37382;45.192;9.790;2023-03-04T07:29:08;101514.56;;;5.76;100.00
51299;BME280;37382;45.192;9.790;2023-03-04T07:31:35;101514.31;;;5.59;100.00
51299;BME280;37382;45.192;9.790;2023-03-04T07:34:05;101515.00;;;5.61;100.00
51299;BME280;37382;45.192;9.790;2023-03-04T07:36:35;101505.34;;;5.59;100.00
51299;BME280;37382;45.192;9.790;2023-03-04T07:39:03;101505.88;;;5.72;100.00
51299;BME280;37382;45.192;9.790;2023-03-04T07:41:31;101515.66;;;5.26;100.00
51299;BME280;37382;45.192;9.790;2023-03-04T07:44:03;101519.72;;;5.49;100.00
51299;BME280;37382;45.192;9.790;2023-03-04T07:46:30;101518.41;;;5.63;100.00
51299;BME280;37382;45.192;9.790;2023-03-04T07:48:57;101513.44;;;5.59;100.00
51299;BME280;37382;45.192;9.790;2023-03-04T07:51:26;101520.78;;;5.76;100.00
51299;BME280;37382;45.192;9.790;2023-03-04T07:53:58;101506.31;;;5.67;100.00
51299;BME280;37382;45.192;9.790;2023-03-04T07:56:30;101518.53;;;5.72;100.00
51299;BME280;37382;45.192;9.790;2023-03-04T07:58:59;101515.47;;;5.94;100.00
51299;BME280;37382;45.192;9.790;2023-03-04T08:01:33;101513.41;;;6.16;100.00
51299;BME280;37382;45.192;9.790;2023-03-04T08:04:03;101510.91;;;6.04;100.00
51299;BME280;37382;45.192;9.790;2023-03-04T08:06:32;101514.00;;;6.10;100.00
51299;BME280;37382;45.192;9.790;2023-03-04T08:09:02;101509.13;;;6.23;100.00
51299;BME280;37382;45.192;9.790;2023-03-04T08:11:31;101503.66;;;6.33;100.00
51299;BME280;37382;45.192;9.790;2023-03-04T08:13:59;101510.72;;;6.16;100.00
51299;BME280;37382;45.192;9.790;2023-03-04T08:16:26;101496.56;;;6.50;100.00
51299;BME280;37382;45.192;9.790;2023-03-04T08:18:56;101495.31;;;6.90;100.00
51299;BME280;37382;45.192;9.790;2023-03-04T08:21:25;101495.97;;;7.10;100.00
51299;BME280;37382;45.192;9.790;2023-03-04T08:23:53;101497.81;;;7.09;100.00
51299;BME280;37382;45.192;9.790;2023-03-04T08:26:30;101500.66;;;7.26;100.00
51299;BME280;37382;45.192;9.790;2023-03-04T08:29:04;101500.94;;;7.41;100.00
51299;BME280;37382;45.192;9.790;2023-03-04T08:31:32;101491.66;;;7.43;100.00
51299;BME280;37382;45.192;9.790;2023-03-04T08:34:02;101497.00;;;7.35;100.00
51299;BME280;37382;45.192;9.790;2023-03-04T08:36:29;101490.00;;;7.51;100.00
51299;BME280;37382;45.192;9.790;2023-03-04T08:38:57;101488.31;;;7.76;100.00
51299;BME280;37382;45.192;9.790;2023-03-04T08:41:25;101485.13;;;7.89;100.00
51299;BME280;37382;45.192;9.790;2023-03-04T08:43:53;101496.56;;;7.66;100.00
51299;BME280;37382;45.192;9.790;2023-03-04T08:46:21;101490.25;;;7.92;100.00
51299;BME280;37382;45.192;9.790;2023-03-04T08:48:49;101489.41;;;7.91;100.00
51299;BME280;37382;45.192;9.790;2023-03-04T08:51:16;101487.75;;;7.98;100.00
51299;BME280;37382;45.192;9.790;2023-03-04T08:53:44;101485.09;;;7.80;100.00
51299;BME280;37382;45.192;9.790;2023-03-04T08:56:12;101479.03;;;8.21;100.00
51299;BME280;37382;45.192;9.790;2023-03-04T08:58:40;101478.38;;;8.27;100.00
51299;BME280;37382;45.192;9.790;2023-03-04T09:01:09;101485.50;;;8.36;100.00
51299;BME280;37382;45.192;9.790;2023-03-04T09:03:37;101480.66;;;8.48;100.00
51299;BME280;37382;45.192;9.790;2023-03-04T09:06:07;101481.56;;;8.65;100.00
51299;BME280;37382;45.192;9.790;2023-03-04T09:08:35;101480.72;;;8.81;100.00
51299;BME280;37382;45.192;9.790;2023-03-04T09:11:03;101481.75;;;9.13;100.00
51299;BME280;37382;45.192;9.790;2023-03-04T09:13:31;101476.97;;;9.32;100.00
51299;BME280;37382;45.192;9.790;2023-03-04T09:16:00;101477.31;;;9.37;100.00
51299;BME280;37382;45.192;9.790;2023-03-04T09:18:28;101469.19;;;9.37;100.00
51299;BME280;37382;45.192;9.790;2023-03-04T09:20:55;101480.88;;;9.46;100.00
51299;BME280;37382;45.192;9.790;2023-03-04T09:23:22;101470.97;;;9.69;100.00
51299;BME280;37382;45.192;9.790;2023-03-04T09:25:50;101474.75;;;9.52;100.00
51299;BME280;37382;45.192;9.790;2023-03-04T09:28:18;101471.00;;;9.53;100.00
51299;BME280;37382;45.192;9.790;2023-03-04T09:30:46;101471.59;;;9.88;100.00
51299;BME280;37382;45.192;9.790;2023-03-04T09:33:15;101470.25;;;9.84;100.00
51299;BME280;37382;45.192;9.790;2023-03-04T09:35:43;101463.63;;;9.86;100.00
51299;BME280;37382;45.192;9.790;2023-03-04T09:38:10;101463.38;;;10.04;100.00
51299;BME280;37382;45.192;9.790;2023-03-04T09:40:41;101466.34;;;10.34;100.00
51299;BME280;37382;45.192;9.790;2023-03-04T09:43:29;101454.84;;;10.47;100.00
51299;BME280;37382;45.192;9.790;2023-03-04T09:46:01;101456.88;;;10.99;100.00
51299;BME280;37382;45.192;9.790;2023-03-04T09:48:39;101459.56;;;10.53;100.00
51299;BME280;37382;45.192;9.790;2023-03-04T09:51:20;101446.81;;;11.00;100.00
51299;BME280;37382;45.192;9.790;2023-03-04T09:53:51;101448.53;;;11.16;100.00
51299;BME280;37382;45.192;9.790;2023-03-04T09:56:20;101441.44;;;11.45;100.00
51299;BME280;37382;45.192;9.790;2023-03-04T10:01:49;101439.59;;;11.45;100.00
51299;BME280;37382;45.192;9.790;2023-03-04T10:04:41;101441.28;;;11.61;100.00
51299;BME280;37382;45.192;9.790;2023-03-04T10:07:18;101435.28;;;12.10;100.00
51299;BME280;37382;45.192;9.790;2023-03-04T10:09:56;101434.44;;;12.32;100.00
51299;BME280;37382;45.192;9.790;2023-03-04T10:12:28;101429.97;;;12.24;100.00
51299;BME280;37382;45.192;9.790;2023-03-04T10:15:02;101428.56;;;12.28;100.00
51299;BME280;37382;45.192;9.790;2023-03-04T10:17:37;101415.44;;;12.38;100.00
51299;BME280;37382;45.192;9.790;2023-03-04T10:20:29;101422.41;;;12.04;100.00
51299;BME280;37382;45.192;9.790;2023-03-04T10:23:07;101425.97;;;12.05;100.00
51299;BME280;37382;45.192;9.790;2023-03-04T10:25:42;101416.75;;;12.42;100.00
51299;BME280;37382;45.192;9.790;2023-03-04T10:28:20;101414.03;;;12.64;100.00
51299;BME280;37382;45.192;9.790;2023-03-04T10:30:57;101411.03;;;12.59;100.00
51299;BME280;37382;45.192;9.790;2023-03-04T10:33:28;101407.13;;;12.68;100.00
51299;BME280;37382;45.192;9.790;2023-03-04T10:36:29;101401.94;;;12.73;100.00
51299;BME280;37382;45.192;9.790;2023-03-04T10:39:11;101397.38;;;13.02;100.00
51299;BME280;37382;45.192;9.790;2023-03-04T10:41:45;101392.94;;;13.01;100.00
51299;BME280;37382;45.192;9.790;2023-03-04T10:44:19;101394.59;;;13.30;100.00
51299;BME280;37382;45.192;9.790;2023-03-04T10:46:48;101386.44;;;13.02;100.00
51299;BME280;37382;45.192;9.790;2023-03-04T10:49:18;101382.44;;;13.33;100.00
51299;BME280;37382;45.192;9.790;2023-03-04T10:52:01;101376.59;;;13.71;100.00
51299;BME280;37382;45.192;9.790;2023-03-04T10:54:40;101380.19;;;13.37;100.00
51299;BME280;37382;45.192;9.790;2023-03-04T10:57:20;101377.38;;;13.58;100.00
51299;BME280;37382;45.192;9.790;2023-03-04T11:07:24;101365.75;;;13.49;100.00
51299;BME280;37382;45.192;9.790;2023-03-04T11:09:52;101357.03;;;13.32;100.00
51299;BME280;37382;45.192;9.790;2023-03-04T11:12:32;101351.63;;;13.87;100.00
51299;BME280;37382;45.192;9.790;2023-03-04T11:15:01;101354.31;;;13.74;100.00
51299;BME280;37382;45.192;9.790;2023-03-04T11:17:44;101355.16;;;13.75;100.00
51299;BME280;37382;45.192;9.790;2023-03-04T11:20:38;101351.16;;;13.77;100.00
51299;BME280;37382;45.192;9.790;2023-03-04T11:23:16;101339.72;;;14.09;100.00
51299;BME280;37382;45.192;9.790;2023-03-04T11:25:54;101338.22;;;13.99;100.00
51299;BME280;37382;45.192;9.790;2023-03-04T11:28:30;101338.78;;;13.88;100.00
51299;BME280;37382;45.192;9.790;2023-03-04T11:31:12;101328.34;;;14.18;100.00
51299;BME280;37382;45.192;9.790;2023-03-04T11:33:46;101325.47;;;14.53;100.00
51299;BME280;37382;45.192;9.790;2023-03-04T11:38:55;101318.72;;;14.43;100.00
51299;BME280;37382;45.192;9.790;2023-03-04T11:41:39;101318.47;;;14.31;100.00
51299;BME280;37382;45.192;9.790;2023-03-04T11:44:12;101310.94;;;14.66;100.00
51299;BME280;37382;45.192;9.790;2023-03-04T11:49:27;101303.16;;;14.76;100.00
51299;BME280;37382;45.192;9.790;2023-03-04T12:00:09;101283.72;;;15.11;100.00
51299;BME280;37382;45.192;9.790;2023-03-04T12:05:54;101267.75;;;14.62;100.00
51299;BME280;37382;45.192;9.790;2023-03-04T12:14:12;101253.81;;;15.03;100.00
51299;BME280;37382;45.192;9.790;2023-03-04T12:22:32;101235.84;;;15.66;100.00
51299;BME280;37382;45.192;9.790;2023-03-04T12:28:00;101219.06;;;15.88;88.80
51299;BME280;37382;45.192;9.790;2023-03-04T12:42:28;101193.47;;;15.94;85.85
51299;BME280;37382;45.192;9.790;2023-03-04T12:45:21;101192.19;;;15.96;88.22
51299;BME280;37382;45.192;9.790;2023-03-04T12:48:04;101187.16;;;15.93;85.24
51299;BME280;37382;45.192;9.790;2023-03-04T12:50:41;101171.50;;;15.62;84.35
51299;BME280;37382;45.192;9.790;2023-03-04T12:53:30;101177.88;;;15.17;83.67
51299;BME280;37382;45.192;9.790;2023-03-04T12:56:02;101177.38;;;15.34;82.70
51299;BME280;37382;45.192;9.790;2023-03-04T12:58:31;101162.53;;;15.48;79.42
51299;BME280;37382;45.192;9.790;2023-03-04T13:04:16;101168.16;;;15.21;79.15
51299;BME280;37382;45.192;9.790;2023-03-04T13:07:19;101163.88;;;14.87;81.59
51299;BME280;37382;45.192;9.790;2023-03-04T13:10:00;101157.13;;;15.66;80.35
51299;BME280;37382;45.192;9.790;2023-03-04T13:12:46;101146.66;;;16.14;82.25
51299;BME280;37382;45.192;9.790;2023-03-04T13:15:35;101148.47;;;16.27;79.74
51299;BME280;37382;45.192;9.790;2023-03-04T13:21:27;101139.34;;;16.88;74.87
51299;BME280;37382;45.192;9.790;2023-03-04T13:23:54;101142.13;;;17.07;74.96
51299;BME280;37382;45.192;9.790;2023-03-04T13:26:28;101138.66;;;16.93;72.30
51299;BME280;37382;45.192;9.790;2023-03-04T13:32:04;101129.03;;;16.28;72.81
51299;BME280;37382;45.192;9.790;2023-03-04T13:34:47;101129.41;;;16.50;72.88
51299;BME280;37382;45.192;9.790;2023-03-04T13:37:36;101127.84;;;16.61;73.20
51299;BME280;37382;45.192;9.790;2023-03-04T13:42:46;101119.53;;;16.86;72.76
51299;BME280;37382;45.192;9.790;2023-03-04T13:45:32;101118.66;;;16.86;71.06
51299;BME280;37382;45.192;9.790;2023-03-04T13:48:00;101111.66;;;16.90;70.92
51299;BME280;37382;45.192;9.790;2023-03-04T13:50:33;101114.88;;;17.17;70.17
51299;BME280;37382;45.192;9.790;2023-03-04T13:59:03;101094.31;;;18.80;66.43
51299;BME280;37382;45.192;9.790;2023-03-04T14:01:53;100993.72;;;22.99;53.07
51299;BME280;37382;45.192;9.790;2023-03-04T14:04:27;100944.78;;;25.45;43.15
51299;BME280;37382;45.192;9.790;2023-03-04T14:06:57;100895.81;;;26.93;39.06
51299;BME280;37382;45.192;9.790;2023-03-04T14:09:31;100910.38;;;28.75;35.59
51299;BME280;37382;45.192;9.790;2023-03-04T14:12:02;100982.72;;;27.05;35.30
51299;BME280;37382;45.192;9.790;2023-03-04T14:14:44;101046.91;;;29.97;31.94
51299;BME280;37382;45.192;9.790;2023-03-04T14:17:20;101039.63;;;33.09;29.15
51299;BME280;37382;45.192;9.790;2023-03-04T14:19:49;101037.94;;;32.66;27.72
51299;BME280;37382;45.192;9.790;2023-03-04T14:22:25;100907.09;;;29.50;31.35
51299;BME280;37382;45.192;9.790;2023-03-04T14:27:32;100851.53;;;29.92;28.97
51299;BME280;37382;45.192;9.790;2023-03-04T14:30:05;100855.38;;;30.31;28.71
51299;BME280;37382;45.192;9.790;2023-03-04T14:32:33;100859.16;;;32.21;27.45
51299;BME280;37382;45.192;9.790;2023-03-04T14:35:14;100867.03;;;31.38;27.65
51299;BME280;37382;45.192;9.790;2023-03-04T14:40:24;100899.56;;;31.87;26.26
51299;BME280;37382;45.192;9.790;2023-03-04T14:42:56;100908.25;;;33.88;24.79
51299;BME280;37382;45.192;9.790;2023-03-04T14:45:26;100920.38;;;34.00;24.55
51299;BME280;37382;45.192;9.790;2023-03-04T14:48:00;100936.53;;;32.87;25.53
51299;BME280;37382;45.192;9.790;2023-03-04T14:50:29;100938.16;;;31.78;27.00
51299;BME280;37382;45.192;9.790;2023-03-04T14:55:34;100949.53;;;35.99;23.23
51299;BME280;37382;45.192;9.790;2023-03-04T14:58:06;100956.06;;;33.59;24.42
51299;BME280;37382;45.192;9.790;2023-03-04T15:00:36;100993.19;;;29.81;26.72
51299;BME280;37382;45.192;9.790;2023-03-04T15:03:39;101015.53;;;31.19;26.90
51299;BME280;37382;45.192;9.790;2023-03-04T15:06:14;101004.09;;;32.45;26.29
51299;BME280;37382;45.192;9.790;2023-03-04T15:08:43;100999.16;;;31.95;25.98
51299;BME280;37382;45.192;9.790;2023-03-04T15:11:23;100997.78;;;33.54;24.62
51299;BME280;37382;45.192;9.790;2023-03-04T15:13:54;100999.47;;;33.33;24.66
51299;BME280;37382;45.192;9.790;2023-03-04T15:16:24;100986.50;;;33.20;24.33
51299;BME280;37382;45.192;9.790;2023-03-04T15:21:38;100983.38;;;32.71;24.03
51299;BME280;37382;45.192;9.790;2023-03-04T15:24:08;100978.34;;;32.55;24.49
51299;BME280;37382;45.192;9.790;2023-03-04T15:26:38;100999.47;;;26.43;30.05
51299;BME280;37382;45.192;9.790;2023-03-04T15:29:15;100989.31;;;28.50;28.94
51299;BME280;37382;45.192;9.790;2023-03-04T15:31:43;100986.00;;;27.07;29.81
51299;BME280;37382;45.192;9.790;2023-03-04T15:34:12;100988.75;;;27.12;30.69
51299;BME280;37382;45.192;9.790;2023-03-04T15:36:43;100987.41;;;26.91;30.84
51299;BME280;37382;45.192;9.790;2023-03-04T15:39:12;100991.91;;;24.42;33.88
51299;BME280;37382;45.192;9.790;2023-03-04T15:41:41;100992.91;;;23.80;34.66
51299;BME280;37382;45.192;9.790;2023-03-04T15:44:09;100985.69;;;23.69;34.80
51299;BME280;37382;45.192;9.790;2023-03-04T15:46:38;100982.03;;;24.75;33.48
51299;BME280;37382;45.192;9.790;2023-03-04T15:49:05;100977.44;;;26.41;32.01
51299;BME280;37382;45.192;9.790;2023-03-04T15:51:33;100972.28;;;25.17;33.24
51299;BME280;37382;45.192;9.790;2023-03-04T15:54:01;100969.97;;;27.18;30.85
51299;BME280;37382;45.192;9.790;2023-03-04T15:56:31;100969.81;;;26.90;31.39
51299;BME280;37382;45.192;9.790;2023-03-04T16:01:27;100974.91;;;25.97;32.55
51299;BME280;37382;45.192;9.790;2023-03-04T16:03:54;100979.72;;;25.27;32.93
51299;BME280;37382;45.192;9.790;2023-03-04T16:06:24;100978.81;;;26.44;32.52
51299;BME280;37382;45.192;9.790;2023-03-04T16:08:53;100970.66;;;26.04;32.78
51299;BME280;37382;45.192;9.790;2023-03-04T16:11:24;100970.09;;;25.78;32.53
51299;BME280;37382;45.192;9.790;2023-03-04T16:13:52;100968.78;;;23.55;35.48
51299;BME280;37382;45.192;9.790;2023-03-04T16:16:19;100971.47;;;25.51;33.78
51299;BME280;37382;45.192;9.790;2023-03-04T16:18:47;100961.84;;;25.68;33.45
51299;BME280;37382;45.192;9.790;2023-03-04T16:21:17;100966.91;;;26.14;32.75
51299;BME280;37382;45.192;9.790;2023-03-04T16:23:47;100957.34;;;24.68;35.13
51299;BME280;37382;45.192;9.790;2023-03-04T16:26:17;100967.88;;;22.04;40.09
51299;BME280;37382;45.192;9.790;2023-03-04T16:28:46;100963.06;;;20.82;40.63
51299;BME280;37382;45.192;9.790;2023-03-04T16:31:14;100966.69;;;20.87;40.39
51299;BME280;37382;45.192;9.790;2023-03-04T16:33:42;100956.81;;;19.98;42.91
51299;BME280;37382;45.192;9.790;2023-03-04T16:36:21;100960.25;;;19.03;45.30
51299;BME280;37382;45.192;9.790;2023-03-04T16:38:50;100966.09;;;18.61;44.84
51299;BME280;37382;45.192;9.790;2023-03-04T16:41:27;100963.75;;;18.00;49.73
51299;BME280;37382;45.192;9.790;2023-03-04T16:43:58;100971.75;;;17.42;48.32
51299;BME280;37382;45.192;9.790;2023-03-04T16:46:26;100966.13;;;17.49;51.27
51299;BME280;37382;45.192;9.790;2023-03-04T16:48:54;100959.13;;;16.99;53.18
51299;BME280;37382;45.192;9.790;2023-03-04T16:51:22;100959.06;;;16.57;53.54
51299;BME280;37382;45.192;9.790;2023-03-04T16:53:57;100962.16;;;16.30;57.49
51299;BME280;37382;45.192;9.790;2023-03-04T16:56:28;100964.84;;;16.18;59.88
51299;BME280;37382;45.192;9.790;2023-03-04T16:58:56;100959.84;;;15.72;69.19
51299;BME280;37382;45.192;9.790;2023-03-04T17:01:26;100966.81;;;15.49;70.46
51299;BME280;37382;45.192;9.790;2023-03-04T17:04:00;100959.38;;;15.31;70.45
51299;BME280;37382;45.192;9.790;2023-03-04T17:06:27;100976.13;;;14.91;73.38
51299;BME280;37382;45.192;9.790;2023-03-04T17:08:55;100965.94;;;14.59;79.34
51299;BME280;37382;45.192;9.790;2023-03-04T17:11:23;100969.59;;;14.47;82.11
51299;BME280;37382;45.192;9.790;2023-03-04T17:13:50;100965.78;;;14.48;87.06
51299;BME280;37382;45.192;9.790;2023-03-04T17:16:18;100969.41;;;14.41;87.35
51299;BME280;37382;45.192;9.790;2023-03-04T17:18:45;100958.38;;;14.55;87.45
51299;BME280;37382;45.192;9.790;2023-03-04T17:21:16;100966.09;;;14.33;92.00
51299;BME280;37382;45.192;9.790;2023-03-04T17:23:44;100961.28;;;14.21;92.47
51299;BME280;37382;45.192;9.790;2023-03-04T17:26:12;100972.00;;;14.23;92.46
51299;BME280;37382;45.192;9.790;2023-03-04T17:28:41;100969.97;;;14.05;93.91
51299;BME280;37382;45.192;9.790;2023-03-04T17:31:15;100969.38;;;13.90;98.80
51299;BME280;37382;45.192;9.790;2023-03-04T17:33:43;100969.81;;;13.93;100.00
51299;BME280;37382;45.192;9.790;2023-03-04T17:36:12;100962.91;;;13.64;100.00
51299;BME280;37382;45.192;9.790;2023-03-04T17:38:41;100973.22;;;13.62;100.00
51299;BME280;37382;45.192;9.790;2023-03-04T17:41:12;100967.13;;;13.60;100.00
51299;BME280;37382;45.192;9.790;2023-03-04T17:43:52;100977.88;;;13.48;100.00
51299;BME280;37382;45.192;9.790;2023-03-04T17:46:25;100976.56;;;13.30;100.00
51299;BME280;37382;45.192;9.790;2023-03-04T17:48:55;100977.00;;;13.21;100.00
51299;BME280;37382;45.192;9.790;2023-03-04T17:51:34;100977.13;;;12.72;100.00
51299;BME280;37382;45.192;9.790;2023-03-04T17:54:04;100980.22;;;12.49;100.00
51299;BME280;37382;45.192;9.790;2023-03-04T17:56:33;100982.09;;;12.49;100.00
51299;BME280;37382;45.192;9.790;2023-03-04T17:59:04;100985.91;;;12.61;100.00
51299;BME280;37382;45.192;9.790;2023-03-04T18:01:32;100984.03;;;12.61;100.00
51299;BME280;37382;45.192;9.790;2023-03-04T18:04:00;100985.91;;;12.61;100.00
51299;BME280;37382;45.192;9.790;2023-03-04T18:06:27;100987.63;;;12.14;100.00
51299;BME280;37382;45.192;9.790;2023-03-04T18:08:55;100989.97;;;12.23;100.00
51299;BME280;37382;45.192;9.790;2023-03-04T18:11:25;100986.41;;;12.23;100.00
51299;BME280;37382;45.192;9.790;2023-03-04T18:13:52;100989.75;;;12.18;100.00
51299;BME280;37382;45.192;9.790;2023-03-04T18:16:23;100992.19;;;12.06;100.00
51299;BME280;37382;45.192;9.790;2023-03-04T18:18:54;100992.94;;;11.93;100.00
51299;BME280;37382;45.192;9.790;2023-03-04T18:21:27;100994.72;;;11.80;100.00
51299;BME280;37382;45.192;9.790;2023-03-04T18:23:55;101002.09;;;11.86;100.00
51299;BME280;37382;45.192;9.790;2023-03-04T18:26:24;100995.47;;;11.95;100.00
51299;BME280;37382;45.192;9.790;2023-03-04T18:28:52;100994.28;;;12.04;100.00
51299;BME280;37382;45.192;9.790;2023-03-04T18:31:23;100993.28;;;11.84;100.00
51299;BME280;37382;45.192;9.790;2023-03-04T18:33:51;100991.16;;;11.79;100.00
51299;BME280;37382;45.192;9.790;2023-03-04T18:36:19;100990.75;;;11.82;100.00
51299;BME280;37382;45.192;9.790;2023-03-04T18:38:46;100992.84;;;11.80;100.00
51299;BME280;37382;45.192;9.790;2023-03-04T18:41:14;100996.59;;;11.79;100.00
51299;BME280;37382;45.192;9.790;2023-03-04T18:43:42;100990.47;;;11.70;100.00
51299;BME280;37382;45.192;9.790;2023-03-04T18:49:02;100985.84;;;11.43;100.00
51299;BME280;37382;45.192;9.790;2023-03-04T18:51:30;100987.66;;;11.07;100.00
51299;BME280;37382;45.192;9.790;2023-03-04T18:53:58;100994.03;;;10.78;100.00
51299;BME280;37382;45.192;9.790;2023-03-04T18:56:34;100993.09;;;11.07;100.00
51299;BME280;37382;45.192;9.790;2023-03-04T18:59:11;100997.88;;;10.83;100.00
51299;BME280;37382;45.192;9.790;2023-03-04T19:01:40;100997.91;;;10.68;100.00
51299;BME280;37382;45.192;9.790;2023-03-04T19:04:08;100995.00;;;10.70;100.00
51299;BME280;37382;45.192;9.790;2023-03-04T19:06:36;100992.88;;;10.87;100.00
51299;BME280;37382;45.192;9.790;2023-03-04T19:09:05;100996.53;;;10.94;100.00
51299;BME280;37382;45.192;9.790;2023-03-04T19:11:32;100994.13;;;10.84;100.00
51299;BME280;37382;45.192;9.790;2023-03-04T19:14:00;100997.03;;;10.83;100.00
51299;BME280;37382;45.192;9.790;2023-03-04T19:16:28;100995.88;;;10.71;100.00
51299;BME280;37382;45.192;9.790;2023-03-04T19:18:55;100995.16;;;10.83;100.00
51299;BME280;37382;45.192;9.790;2023-03-04T19:21:23;100994.97;;;11.07;100.00
51299;BME280;37382;45.192;9.790;2023-03-04T19:23:50;100991.03;;;11.09;100.00
51299;BME280;37382;45.192;9.790;2023-03-04T19:26:19;100988.22;;;10.81;100.00
51299;BME280;37382;45.192;9.790;2023-03-04T19:28:46;100993.59;;;10.74;100.00
51299;BME280;37382;45.192;9.790;2023-03-04T19:31:13;100989.50;;;10.63;100.00
51299;BME280;37382;45.192;9.790;2023-03-04T19:33:41;100998.13;;;10.67;100.00
51299;BME280;37382;45.192;9.790;2023-03-04T19:36:09;100998.06;;;10.60;100.00
51299;BME280;37382;45.192;9.790;2023-03-04T19:38:36;100990.81;;;10.67;100.00
51299;BME280;37382;45.192;9.790;2023-03-04T19:41:13;101001.53;;;10.91;100.00